Time;durP1;ratioP1;P1;durP2;ratioP2;P2;SDS_P1;SDS_P2;PMS_P1;PMS_P2;Temp;Humidity;BMP_temperature;BMP_pressure;BME280_temperature;BME280_humidity;BME280_pressure;Samples;Min_cycle;Max_cycle;Signal;HPM_P1;HPM_P2
2023/08/31 00:01:35;;;;;;;1.70;1.60;;;15.40;99.90;;;;;;932351;150;27455;-77
2023/08/31 00:03:59;;;;;;;1.73;1.63;;;15.40;99.90;;;;;;930323;150;27367;-77
2023/08/31 00:06:26;;;;;;;1.72;1.62;;;15.40;99.90;;;;;;933767;150;27335;-76
2023/08/31 00:08:52;;;;;;;2.80;1.87;;;15.40;99.90;;;;;;930819;150;27460;-76
2023/08/31 00:11:19;;;;;;;4.17;1.65;;;15.40;99.90;;;;;;930303;150;27406;-78
2023/08/31 00:13:46;;;;;;;2.35;2.00;;;15.40;99.90;;;;;;930585;149;27784;-77
2023/08/31 00:16:12;;;;;;;2.07;1.87;;;15.40;99.90;;;;;;931506;150;27428;-77
2023/08/31 00:18:39;;;;;;;2.17;2.00;;;15.30;99.90;;;;;;930336;150;27373;-77
2023/08/31 00:21:05;;;;;;;3.10;1.80;;;15.30;99.90;;;;;;932718;150;27529;-76
2023/08/31 00:23:32;;;;;;;2.02;1.90;;;15.30;99.90;;;;;;931574;150;27382;-77
2023/08/31 00:25:58;;;;;;;2.10;2.00;;;15.30;99.90;;;;;;931307;150;27465;-78
2023/08/31 00:28:27;;;;;;;3.33;1.90;;;15.30;99.90;;;;;;932709;150;27856;-77
2023/08/31 00:30:51;;;;;;;2.87;1.95;;;15.30;99.90;;;;;;930758;150;27884;-76
2023/08/31 00:33:18;;;;;;;2.85;2.05;;;15.30;99.90;;;;;;931164;150;27468;-77
2023/08/31 00:35:48;;;;;;;1.87;1.70;;;15.30;99.90;;;;;;933087;150;28047;-77
2023/08/31 00:38:11;;;;;;;2.33;2.12;;;15.30;99.90;;;;;;930920;150;27441;-77
2023/08/31 00:40:46;;;;;;;1.98;1.87;;;15.20;99.90;;;;;;932130;150;27348;-76
2023/08/31 00:43:16;;;;;;;3.10;2.30;;;15.20;99.90;;;;;;930895;150;27464;-74
2023/08/31 00:45:43;;;;;;;2.12;1.92;;;15.20;99.90;;;;;;931424;150;27420;-74
2023/08/31 00:48:09;;;;;;;2.22;2.02;;;15.20;99.90;;;;;;931968;150;27470;-74
2023/08/31 00:50:36;;;;;;;1.95;1.85;;;15.20;99.90;;;;;;930878;150;27378;-77
2023/08/31 00:53:03;;;;;;;2.40;1.80;;;15.20;99.90;;;;;;929558;150;27452;-74
2023/08/31 00:55:29;;;;;;;2.37;2.10;;;15.20;99.90;;;;;;930708;150;27327;-74
2023/08/31 00:57:55;;;;;;;2.23;2.03;;;15.20;99.90;;;;;;930425;150;27305;-74
2023/08/31 01:00:23;;;;;;;2.23;2.03;;;15.20;99.90;;;;;;932320;150;27353;-77
2023/08/31 01:02:52;;;;;;;2.30;2.10;;;15.20;99.90;;;;;;930180;150;27369;-74
2023/08/31 01:05:30;;;;;;;3.35;2.75;;;15.20;99.90;;;;;;929670;150;27468;-75
2023/08/31 01:08:05;;;;;;;2.30;2.10;;;15.20;99.90;;;;;;930755;150;27314;-75
2023/08/31 01:10:44;;;;;;;3.67;2.17;;;15.20;99.90;;;;;;931267;150;27339;-76
2023/08/31 01:13:13;;;;;;;2.22;2.00;;;15.20;99.90;;;;;;931423;150;28202;-75
2023/08/31 01:15:42;;;;;;;2.07;1.87;;;15.20;99.90;;;;;;931395;150;27438;-74
2023/08/31 01:18:09;;;;;;;3.30;2.40;;;15.10;99.90;;;;;;931997;150;27331;-76
2023/08/31 01:20:35;;;;;;;4.33;2.47;;;15.10;99.90;;;;;;908382;153;27447;-74
2023/08/31 01:23:05;;;;;;;2.50;2.30;;;15.10;99.90;;;;;;908954;153;27321;-74
2023/08/31 01:25:32;;;;;;;4.43;2.10;;;15.10;99.90;;;;;;931301;150;27380;-74
2023/08/31 01:27:58;;;;;;;5.43;3.40;;;15.10;99.90;;;;;;932055;150;27427;-76
2023/08/31 01:30:24;;;;;;;2.40;2.20;;;15.00;99.90;;;;;;931453;150;27378;-75
2023/08/31 01:32:51;;;;;;;2.22;2.10;;;15.00;99.90;;;;;;930547;150;27454;-74
2023/08/31 01:35:18;;;;;;;2.67;2.40;;;15.00;99.90;;;;;;932246;150;27352;-75
2023/08/31 01:37:53;;;;;;;2.50;2.30;;;15.00;99.90;;;;;;931644;150;27404;-74
2023/08/31 01:40:28;;;;;;;2.03;1.87;;;14.90;99.90;;;;;;931239;150;27452;-74
2023/08/31 01:42:55;;;;;;;2.53;2.07;;;14.90;99.90;;;;;;919940;150;27335;-74
2023/08/31 01:45:21;;;;;;;4.00;2.10;;;14.90;99.90;;;;;;931039;150;27393;-73
2023/08/31 01:47:48;;;;;;;2.70;2.50;;;14.90;99.90;;;;;;933891;150;27358;-75
2023/08/31 01:50:14;;;;;;;3.62;2.37;;;14.90;99.90;;;;;;931797;150;27487;-73
2023/08/31 01:52:41;;;;;;;2.57;2.30;;;14.90;99.90;;;;;;929985;150;27384;-77
2023/08/31 01:55:08;;;;;;;2.57;2.37;;;14.80;99.90;;;;;;932057;150;27458;-77
2023/08/31 01:57:34;;;;;;;2.37;2.17;;;14.80;99.90;;;;;;930990;150;27428;-77
2023/08/31 02:00:01;;;;;;;3.00;2.40;;;14.80;99.90;;;;;;932476;150;27437;-77
2023/08/31 02:02:27;;;;;;;3.80;2.70;;;14.80;99.90;;;;;;931679;150;27430;-76
2023/08/31 02:04:54;;;;;;;2.47;2.25;;;14.70;99.90;;;;;;931998;150;27288;-76
2023/08/31 02:07:21;;;;;;;2.77;2.23;;;14.70;99.90;;;;;;932577;150;27442;-76
2023/08/31 02:09:47;;;;;;;3.33;2.30;;;14.70;99.90;;;;;;930569;150;27464;-76
2023/08/31 02:12:14;;;;;;;4.50;2.47;;;14.70;99.90;;;;;;931618;150;27382;-76
2023/08/31 02:14:40;;;;;;;3.63;2.40;;;14.60;99.90;;;;;;931369;150;27406;-76
2023/08/31 02:17:07;;;;;;;3.57;2.50;;;14.60;99.90;;;;;;932099;150;27432;-76
2023/08/31 02:19:33;;;;;;;2.67;2.43;;;14.60;99.90;;;;;;930691;150;27353;-76
2023/08/31 02:22:00;;;;;;;2.70;2.33;;;14.70;99.90;;;;;;942553;148;27407;-76
2023/08/31 02:24:27;;;;;;;2.15;2.02;;;14.70;99.90;;;;;;942146;149;27349;-76
2023/08/31 02:26:53;;;;;;;3.62;2.98;;;14.70;99.90;;;;;;944261;149;27446;-76
2023/08/31 02:29:20;;;;;;;3.60;2.20;;;14.70;99.90;;;;;;943114;149;27322;-76
2023/08/31 02:31:46;;;;;;;2.80;2.07;;;14.80;99.90;;;;;;947115;148;27445;-76
2023/08/31 02:34:13;;;;;;;2.43;2.23;;;14.80;99.90;;;;;;941484;149;27380;-76
2023/08/31 02:36:40;;;;;;;2.47;2.27;;;14.80;99.90;;;;;;944615;149;27446;-76
2023/08/31 02:39:06;;;;;;;2.63;2.40;;;14.80;99.90;;;;;;942350;148;27382;-76
2023/08/31 02:41:33;;;;;;;2.47;2.27;;;14.80;99.90;;;;;;944493;149;27308;-76
2023/08/31 02:44:00;;;;;;;1.97;1.87;;;14.80;99.90;;;;;;944060;149;27392;-76
2023/08/31 02:46:26;;;;;;;2.67;2.43;;;14.70;99.90;;;;;;943070;149;27550;-76
2023/08/31 02:48:53;;;;;;;3.37;2.57;;;14.70;99.90;;;;;;945016;149;27274;-76
2023/08/31 02:51:19;;;;;;;2.47;2.27;;;14.70;99.90;;;;;;926826;151;27362;-76
2023/08/31 02:53:46;;;;;;;3.53;2.87;;;14.70;99.90;;;;;;928857;151;27402;-76
2023/08/31 02:56:12;;;;;;;2.70;2.50;;;14.70;99.90;;;;;;927196;151;27393;-76
2023/08/31 02:58:39;;;;;;;4.00;2.12;;;14.70;99.90;;;;;;944296;149;27360;-76
2023/08/31 03:01:11;;;;;;;3.10;2.75;;;14.70;99.90;;;;;;944878;148;27434;-76
2023/08/31 03:03:41;;;;;;;2.90;2.70;;;14.80;99.90;;;;;;943169;149;27385;-76
2023/08/31 03:06:08;;;;;;;2.40;2.30;;;14.80;99.90;;;;;;944453;149;27793;-76
2023/08/31 03:08:34;;;;;;;2.67;2.43;;;14.80;99.90;;;;;;944435;149;27442;-76
2023/08/31 03:11:00;;;;;;;2.80;2.60;;;14.80;99.90;;;;;;944071;149;27355;-76
2023/08/31 03:13:27;;;;;;;2.77;2.57;;;14.90;99.90;;;;;;944997;148;27359;-76
2023/08/31 03:15:54;;;;;;;2.87;2.50;;;14.90;99.90;;;;;;942679;149;27470;-76
2023/08/31 03:18:20;;;;;;;2.75;2.55;;;14.90;99.90;;;;;;942965;149;29296;-76
2023/08/31 03:20:47;;;;;;;2.83;2.63;;;15.00;99.90;;;;;;943645;149;27809;-74
2023/08/31 03:23:13;;;;;;;2.75;2.50;;;15.00;99.90;;;;;;944956;149;27364;-77
2023/08/31 03:25:40;;;;;;;2.73;2.53;;;15.00;99.90;;;;;;944600;149;27426;-77
2023/08/31 03:28:07;;;;;;;2.73;2.40;;;15.10;99.90;;;;;;945228;149;27376;-76
2023/08/31 03:30:33;;;;;;;2.83;2.53;;;15.10;99.90;;;;;;928323;150;27302;-76
2023/08/31 03:33:00;;;;;;;3.95;2.62;;;15.10;99.90;;;;;;927950;151;27371;-76
2023/08/31 03:35:29;;;;;;;4.45;2.83;;;15.10;99.90;;;;;;929422;151;27426;-77
2023/08/31 03:37:56;;;;;;;4.37;2.67;;;15.10;99.90;;;;;;927100;151;27436;-76
2023/08/31 03:40:25;;;;;;;3.20;2.73;;;15.10;99.90;;;;;;927720;151;27428;-76
2023/08/31 03:42:53;;;;;;;2.90;2.63;;;15.10;99.90;;;;;;926729;150;27828;-76
2023/08/31 03:45:18;;;;;;;2.95;2.75;;;15.20;99.90;;;;;;927962;150;27427;-76
2023/08/31 03:47:45;;;;;;;3.20;2.43;;;15.20;99.90;;;;;;927610;152;27387;-76
2023/08/31 03:50:11;;;;;;;3.58;2.40;;;15.20;99.90;;;;;;929658;151;27440;-76
2023/08/31 03:52:38;;;;;;;3.33;3.00;;;15.20;99.90;;;;;;943608;149;27365;-76
2023/08/31 03:55:05;;;;;;;2.85;2.27;;;15.20;99.90;;;;;;944084;151;27309;-76
2023/08/31 03:57:31;;;;;;;2.90;2.47;;;15.20;99.90;;;;;;943436;149;27389;-76
2023/08/31 03:59:58;;;;;;;2.83;2.62;;;15.30;99.90;;;;;;942100;149;27918;-76
2023/08/31 04:02:24;;;;;;;3.37;2.73;;;15.30;99.90;;;;;;942223;149;27324;-76
2023/08/31 04:04:51;;;;;;;2.75;2.52;;;15.30;99.90;;;;;;945489;149;27270;-76
2023/08/31 04:07:17;;;;;;;3.37;2.50;;;15.30;99.90;;;;;;945051;149;27361;-76
2023/08/31 04:09:44;;;;;;;3.77;2.45;;;15.30;99.90;;;;;;944596;149;27489;-76
2023/08/31 04:12:11;;;;;;;3.27;2.62;;;15.30;99.90;;;;;;943084;149;27301;-75
2023/08/31 04:14:37;;;;;;;4.10;2.70;;;15.30;99.90;;;;;;944090;149;27325;-76
2023/08/31 04:17:04;;;;;;;2.90;2.70;;;15.30;99.90;;;;;;942576;149;27447;-76
2023/08/31 04:19:30;;;;;;;2.70;2.53;;;15.30;99.90;;;;;;944110;149;27545;-76
2023/08/31 04:21:57;;;;;;;3.27;2.98;;;15.30;99.90;;;;;;943495;148;27441;-76
2023/08/31 04:24:23;;;;;;;5.20;3.60;;;15.30;99.90;;;;;;943095;149;27282;-76
2023/08/31 04:26:51;;;;;;;3.27;2.97;;;15.30;99.90;;;;;;945382;149;27316;-76
2023/08/31 04:29:17;;;;;;;3.57;3.27;;;15.30;99.90;;;;;;945221;149;27356;-76
2023/08/31 04:31:43;;;;;;;3.13;2.93;;;15.30;99.90;;;;;;944147;149;27356;-76
2023/08/31 04:34:10;;;;;;;4.33;3.20;;;15.30;99.90;;;;;;944427;149;27450;-76
2023/08/31 04:36:36;;;;;;;3.83;3.27;;;15.30;99.90;;;;;;944533;149;27328;-76
2023/08/31 04:39:04;;;;;;;3.08;2.80;;;15.30;99.90;;;;;;945059;148;27374;-76
2023/08/31 04:41:30;;;;;;;4.17;3.40;;;15.30;99.90;;;;;;944005;149;27389;-76
2023/08/31 04:43:56;;;;;;;4.35;3.58;;;15.40;99.90;;;;;;943899;149;27490;-76
2023/08/31 04:46:23;;;;;;;4.03;3.62;;;15.40;99.90;;;;;;944375;149;27389;-76
2023/08/31 04:48:49;;;;;;;6.75;3.50;;;15.40;99.90;;;;;;945226;149;27352;-76
2023/08/31 04:51:32;;;;;;;3.40;3.20;;;15.40;99.90;;;;;;943139;149;27364;-76
2023/08/31 04:53:57;;;;;;;4.47;3.40;;;15.40;99.90;;;;;;942790;149;27373;-76
2023/08/31 04:56:24;;;;;;;3.25;2.90;;;15.40;99.90;;;;;;943027;149;27362;-76
2023/08/31 04:58:50;;;;;;;4.05;3.70;;;15.40;99.90;;;;;;945050;149;27470;-76
2023/08/31 05:01:17;;;;;;;4.45;3.67;;;15.40;99.90;;;;;;943190;149;27438;-76
2023/08/31 05:03:44;;;;;;;4.85;3.52;;;15.40;99.90;;;;;;944136;149;28694;-76
2023/08/31 05:06:10;;;;;;;3.60;3.30;;;15.40;99.90;;;;;;943205;149;27805;-76
2023/08/31 05:08:38;;;;;;;5.55;4.12;;;15.40;99.90;;;;;;943615;149;27394;-76
2023/08/31 05:11:03;;;;;;;5.08;4.15;;;15.40;99.90;;;;;;943211;148;27348;-76
2023/08/31 05:13:30;;;;;;;4.00;3.70;;;15.40;99.90;;;;;;943295;149;27364;-76
2023/08/31 05:15:57;;;;;;;3.92;3.20;;;15.50;99.90;;;;;;927147;151;27374;-76
2023/08/31 05:18:23;;;;;;;7.43;5.13;;;15.50;99.90;;;;;;943151;149;27505;-76
2023/08/31 05:20:50;;;;;;;5.67;3.80;;;15.50;99.90;;;;;;943603;149;27366;-76
2023/08/31 05:23:16;;;;;;;4.53;3.60;;;15.60;99.90;;;;;;939492;149;27406;-76
2023/08/31 05:25:43;;;;;;;4.62;3.90;;;15.60;99.90;;;;;;931872;150;27419;-76
2023/08/31 05:28:10;;;;;;;3.98;3.37;;;15.60;99.90;;;;;;931316;150;27331;-76
2023/08/31 05:30:36;;;;;;;3.92;3.62;;;15.70;99.90;;;;;;930392;150;27395;-76
2023/08/31 05:33:06;;;;;;;4.20;3.90;;;15.70;99.90;;;;;;932712;150;27447;-76
2023/08/31 05:35:29;;;;;;;3.80;3.50;;;15.80;99.90;;;;;;931676;150;27806;-76
2023/08/31 05:37:56;;;;;;;3.90;3.50;;;15.80;99.90;;;;;;931379;150;27333;-76
2023/08/31 05:40:22;;;;;;;4.00;3.60;;;15.90;99.90;;;;;;931235;150;27375;-76
2023/08/31 05:42:49;;;;;;;4.83;3.80;;;16.10;99.90;;;;;;932402;150;27489;-76
2023/08/31 05:45:16;;;;;;;3.52;3.22;;;16.30;99.90;;;;;;930645;150;27457;-76
2023/08/31 05:47:42;;;;;;;3.30;2.95;;;16.60;99.90;;;;;;927049;151;27332;-76
2023/08/31 05:50:09;;;;;;;4.90;2.92;;;17.00;99.90;;;;;;927520;151;27355;-76
2023/08/31 05:52:35;;;;;;;3.20;2.90;;;17.30;99.90;;;;;;927688;151;27455;-76
2023/08/31 05:55:02;;;;;;;2.65;2.45;;;17.80;99.90;;;;;;926393;151;27481;-76
2023/08/31 05:57:29;;;;;;;2.60;2.40;;;18.30;99.90;;;;;;927779;151;27500;-76
2023/08/31 05:59:55;;;;;;;3.30;2.60;;;18.80;99.90;;;;;;927216;151;27355;-76
2023/08/31 06:02:22;;;;;;;2.55;2.35;;;19.40;99.90;;;;;;926580;151;27285;-76
2023/08/31 06:04:48;;;;;;;3.80;2.47;;;20.00;99.90;;;;;;927628;151;27472;-74
2023/08/31 06:07:15;;;;;;;3.47;2.70;;;20.60;99.90;;;;;;928462;151;27392;-74
2023/08/31 06:09:42;;;;;;;3.17;2.42;;;21.20;99.90;;;;;;926077;151;27430;-74
2023/08/31 06:12:08;;;;;;;2.25;2.05;;;21.80;99.90;;;;;;927539;151;27406;-74
2023/08/31 06:14:35;;;;;;;2.90;2.20;;;22.40;99.90;;;;;;926742;152;27473;-73
2023/08/31 06:17:02;;;;;;;2.22;2.02;;;22.80;98.40;;;;;;926300;151;27465;-73
2023/08/31 06:19:28;;;;;;;2.58;2.10;;;23.10;94.00;;;;;;926395;151;27426;-73
2023/08/31 06:21:55;;;;;;;4.50;2.90;;;23.30;90.50;;;;;;926063;151;27352;-73
2023/08/31 06:24:21;;;;;;;2.40;2.10;;;23.20;86.50;;;;;;925930;151;27493;-74
2023/08/31 06:26:48;;;;;;;2.75;2.25;;;23.10;84.80;;;;;;926524;152;27393;-73
2023/08/31 06:29:14;;;;;;;2.50;2.20;;;22.90;84.20;;;;;;927834;151;27376;-73
2023/08/31 06:31:41;;;;;;;2.70;2.00;;;22.80;83.50;;;;;;925864;151;27347;-74
2023/08/31 06:34:07;;;;;;;2.15;1.92;;;22.60;82.50;;;;;;924226;151;27503;-74
2023/08/31 06:36:34;;;;;;;2.40;2.20;;;22.40;81.80;;;;;;927579;151;27545;-74
2023/08/31 06:39:01;;;;;;;3.10;2.05;;;22.10;81.70;;;;;;927725;151;27686;-73
2023/08/31 06:41:27;;;;;;;6.25;3.12;;;21.90;82.50;;;;;;925974;151;27732;-74
2023/08/31 06:43:54;;;;;;;2.00;1.90;;;21.80;87.60;;;;;;925748;151;27400;-73
2023/08/31 06:46:20;;;;;;;5.40;2.00;;;21.90;93.00;;;;;;927686;151;27360;-74
2023/08/31 06:48:48;;;;;;;2.05;1.90;;;22.30;96.20;;;;;;925996;151;27379;-74
2023/08/31 06:51:14;;;;;;;2.25;1.95;;;22.80;96.40;;;;;;926386;151;27442;-72
2023/08/31 06:53:40;;;;;;;3.42;1.75;;;23.30;94.50;;;;;;926523;151;27336;-73
2023/08/31 06:56:07;;;;;;;2.42;1.92;;;23.90;91.40;;;;;;924986;152;27345;-73
2023/08/31 06:58:33;;;;;;;2.22;1.85;;;24.30;86.50;;;;;;927987;151;27509;-74
2023/08/31 07:01:01;;;;;;;2.12;1.85;;;24.70;82.30;;;;;;926536;151;27460;-72
2023/08/31 07:03:27;;;;;;;2.50;2.30;;;24.80;79.30;;;;;;926733;151;27370;-72
2023/08/31 07:05:54;;;;;;;3.95;1.87;;;25.00;78.40;;;;;;926821;151;27389;-73
2023/08/31 07:08:20;;;;;;;1.90;1.80;;;25.20;77.70;;;;;;925473;151;27490;-75
2023/08/31 07:10:47;;;;;;;3.05;1.92;;;25.40;78.20;;;;;;925958;151;27379;-72
2023/08/31 07:13:13;;;;;;;3.55;2.02;;;25.80;79.10;;;;;;925794;151;27305;-72
2023/08/31 07:15:40;;;;;;;2.20;1.60;;;26.30;78.90;;;;;;926496;151;27388;-73
2023/08/31 07:18:07;;;;;;;2.92;1.67;;;26.80;77.70;;;;;;926067;151;27477;-75
2023/08/31 07:20:33;;;;;;;1.72;1.60;;;27.30;75.40;;;;;;926483;151;27384;-73
2023/08/31 07:22:59;;;;;;;3.67;1.90;;;27.80;73.10;;;;;;927328;151;27479;-73
2023/08/31 07:25:27;;;;;;;3.37;2.02;;;28.20;71.40;;;;;;916778;151;27860;-72
2023/08/31 07:27:52;;;;;;;1.80;1.45;;;28.50;71.30;;;;;;919172;152;27354;-75
2023/08/31 07:30:19;;;;;;;3.08;1.72;;;28.70;67.90;;;;;;898884;155;27405;-72
2023/08/31 07:32:46;;;;;;;4.50;2.30;;;28.90;65.80;;;;;;935122;149;27433;-74
2023/08/31 07:35:12;;;;;;;3.72;1.98;;;28.90;64.50;;;;;;935696;149;27324;-73
2023/08/31 07:37:39;;;;;;;3.05;1.70;;;28.90;64.60;;;;;;910237;154;27375;-73
2023/08/31 07:40:09;;;;;;;2.80;1.57;;;28.90;64.00;;;;;;934405;148;27361;-75
2023/08/31 07:42:35;;;;;;;3.72;1.92;;;28.80;63.00;;;;;;914769;152;27403;-73
2023/08/31 07:45:02;;;;;;;7.90;1.82;;;28.70;61.60;;;;;;915044;152;27433;-72
2023/08/31 07:47:28;;;;;;;3.37;1.60;;;28.40;60.50;;;;;;914825;152;27371;-72
2023/08/31 07:49:55;;;;;;;1.98;1.77;;;28.00;60.00;;;;;;915453;152;27322;-73
2023/08/31 07:52:21;;;;;;;2.72;1.77;;;27.60;59.90;;;;;;915136;152;27506;-72
2023/08/31 07:54:48;;;;;;;1.77;1.30;;;27.20;59.90;;;;;;914905;152;28049;-73
2023/08/31 07:57:14;;;;;;;2.58;1.80;;;26.70;59.90;;;;;;934960;148;27361;-73
2023/08/31 07:59:41;;;;;;;2.62;1.80;;;26.30;60.20;;;;;;936281;148;27251;-72
2023/08/31 08:02:08;;;;;;;2.30;1.60;;;25.90;60.90;;;;;;910314;154;27406;-75
2023/08/31 08:04:34;;;;;;;2.12;1.52;;;25.50;61.40;;;;;;933910;148;27820;-75
2023/08/31 08:07:01;;;;;;;2.62;1.82;;;25.20;61.70;;;;;;914877;152;27369;-75
2023/08/31 08:09:28;;;;;;;3.08;1.90;;;24.90;62.40;;;;;;935024;148;27416;-75
2023/08/31 08:11:54;;;;;;;4.03;1.80;;;24.60;62.90;;;;;;909330;154;27468;-75
2023/08/31 08:14:21;;;;;;;2.47;2.25;;;24.40;63.50;;;;;;936877;148;27439;-75
2023/08/31 08:16:47;;;;;;;4.08;1.70;;;24.30;64.00;;;;;;908686;154;27303;-75
2023/08/31 08:19:14;;;;;;;2.15;1.60;;;24.20;64.80;;;;;;934517;148;27275;-75
2023/08/31 08:21:40;;;;;;;2.20;1.50;;;24.30;65.90;;;;;;935400;148;27418;-75
2023/08/31 08:24:07;;;;;;;3.37;2.30;;;24.50;66.70;;;;;;935396;148;27326;-75
2023/08/31 08:26:34;;;;;;;4.08;1.80;;;24.70;66.40;;;;;;943009;149;27483;-75
2023/08/31 08:29:00;;;;;;;2.75;1.75;;;24.90;66.40;;;;;;944401;149;27331;-75
2023/08/31 08:31:27;;;;;;;3.17;1.42;;;25.30;66.60;;;;;;928475;151;27855;-75
2023/08/31 08:33:53;;;;;;;1.80;1.15;;;25.70;66.70;;;;;;922925;152;27471;-75
2023/08/31 08:36:20;;;;;;;2.83;1.75;;;26.00;66.20;;;;;;944775;148;27389;-76
2023/08/31 08:38:47;;;;;;;1.50;1.40;;;26.30;65.00;;;;;;945419;149;27391;-75
2023/08/31 08:41:13;;;;;;;2.85;1.65;;;26.60;64.20;;;;;;945248;149;27427;-75
2023/08/31 08:43:40;;;;;;;1.80;1.62;;;26.80;62.80;;;;;;943283;149;27366;-75
2023/08/31 08:46:07;;;;;;;1.77;1.57;;;26.90;61.90;;;;;;943094;149;27353;-75
2023/08/31 08:48:33;;;;;;;2.08;1.37;;;27.00;61.70;;;;;;943175;149;27370;-76
2023/08/31 08:50:59;;;;;;;2.65;1.67;;;27.20;61.80;;;;;;944822;148;27454;-76
2023/08/31 08:53:26;;;;;;;2.40;1.65;;;27.30;61.90;;;;;;945416;148;27368;-76
2023/08/31 08:55:53;;;;;;;1.85;1.40;;;27.40;61.00;;;;;;944246;149;27460;-76
2023/08/31 08:58:19;;;;;;;2.30;1.40;;;27.60;61.00;;;;;;944020;149;27443;-76
2023/08/31 09:00:46;;;;;;;1.65;1.30;;;27.90;61.70;;;;;;926964;151;27759;-76
2023/08/31 09:03:12;;;;;;;2.22;1.50;;;28.10;60.80;;;;;;927227;151;27734;-76
2023/08/31 09:05:39;;;;;;;3.80;1.42;;;28.40;60.10;;;;;;925695;152;27447;-76
2023/08/31 09:08:07;;;;;;;2.52;1.55;;;28.70;60.00;;;;;;943933;149;27361;-76
2023/08/31 09:10:41;;;;;;;1.62;1.52;;;29.10;60.20;;;;;;928614;150;27355;-76
2023/08/31 09:13:08;;;;;;;2.20;1.40;;;29.60;60.20;;;;;;924215;152;27442;-76
2023/08/31 09:15:37;;;;;;;2.65;1.60;;;30.00;59.50;;;;;;928986;151;27304;-76
2023/08/31 09:18:04;;;;;;;2.55;1.45;;;30.30;57.80;;;;;;927189;151;26445;-77
2023/08/31 09:20:30;;;;;;;2.52;1.55;;;30.40;56.30;;;;;;926663;151;27452;-77
2023/08/31 09:22:57;;;;;;;2.77;1.62;;;30.20;55.30;;;;;;927686;151;27336;-77
2023/08/31 09:25:23;;;;;;;2.37;1.47;;;30.00;54.60;;;;;;943389;151;27374;-77
2023/08/31 09:27:50;;;;;;;2.05;1.50;;;29.60;54.10;;;;;;944916;148;27361;-77
2023/08/31 09:30:16;;;;;;;2.33;1.30;;;29.20;54.00;;;;;;943016;148;27357;-77
2023/08/31 09:32:44;;;;;;;2.42;1.30;;;28.70;54.10;;;;;;944075;149;27439;-76
2023/08/31 09:35:10;;;;;;;1.90;1.60;;;28.40;54.90;;;;;;944245;149;27354;-76
2023/08/31 09:37:36;;;;;;;1.35;1.25;;;28.20;56.20;;;;;;943458;149;27315;-75
2023/08/31 09:40:03;;;;;;;2.55;1.57;;;28.30;57.30;;;;;;943976;149;27358;-76
2023/08/31 09:42:38;;;;;;;4.25;1.55;;;28.50;58.00;;;;;;943273;149;27342;-77
2023/08/31 09:45:05;;;;;;;1.77;1.30;;;29.00;58.70;;;;;;942778;148;27959;-77
2023/08/31 09:47:32;;;;;;;4.33;1.40;;;29.50;58.50;;;;;;946726;148;27479;-77
2023/08/31 09:49:58;;;;;;;2.15;1.52;;;30.10;57.90;;;;;;946970;148;27369;-77
2023/08/31 09:52:25;;;;;;;1.67;1.30;;;30.60;56.50;;;;;;945729;148;27282;-75
2023/08/31 09:54:51;;;;;;;2.50;1.42;;;31.00;55.70;;;;;;946970;148;27338;-78
2023/08/31 09:57:18;;;;;;;2.95;1.90;;;31.10;54.10;;;;;;945626;148;27368;-77
2023/08/31 09:59:45;;;;;;;1.92;1.50;;;31.10;52.50;;;;;;945237;148;27368;-75
2023/08/31 10:02:11;;;;;;;1.92;1.65;;;30.80;51.40;;;;;;947261;148;27414;-76
2023/08/31 10:04:38;;;;;;;1.98;1.40;;;30.40;50.90;;;;;;942243;149;27362;-77
2023/08/31 10:07:05;;;;;;;2.50;1.00;;;29.90;50.80;;;;;;945128;149;27357;-77
2023/08/31 10:09:31;;;;;;;3.22;1.62;;;29.30;51.40;;;;;;944664;149;27421;-76
2023/08/31 10:11:58;;;;;;;2.47;1.37;;;28.80;51.80;;;;;;945065;149;27354;-77
2023/08/31 10:14:24;;;;;;;1.67;1.17;;;28.30;52.20;;;;;;943805;149;27432;-76
2023/08/31 10:16:52;;;;;;;1.95;1.37;;;28.00;52.60;;;;;;942915;149;27266;-76
2023/08/31 10:19:17;;;;;;;2.85;1.42;;;27.60;53.10;;;;;;942591;149;27401;-76
2023/08/31 10:21:44;;;;;;;2.22;1.30;;;27.30;53.60;;;;;;943589;148;27353;-77
2023/08/31 10:24:10;;;;;;;1.40;1.30;;;27.10;54.10;;;;;;923969;152;27438;-77
2023/08/31 10:26:37;;;;;;;5.20;1.60;;;27.00;54.30;;;;;;930105;151;27450;-77
2023/08/31 10:29:04;;;;;;;1.32;1.20;;;26.90;54.10;;;;;;929279;151;27386;-76
2023/08/31 10:31:30;;;;;;;2.65;1.30;;;26.80;54.20;;;;;;942657;149;27350;-76
2023/08/31 10:33:59;;;;;;;3.72;1.40;;;26.80;54.00;;;;;;942536;148;27672;-77
2023/08/31 10:36:43;;;;;;;1.67;1.02;;;26.70;53.50;;;;;;941865;149;27367;-76
2023/08/31 10:39:16;;;;;;;1.30;1.20;;;26.50;53.50;;;;;;942385;149;27330;-75
2023/08/31 10:41:43;;;;;;;1.30;1.20;;;26.40;53.60;;;;;;944050;149;27367;-77
2023/08/31 10:44:19;;;;;;;2.20;1.35;;;26.20;53.80;;;;;;941035;149;27363;-78
2023/08/31 10:46:45;;;;;;;2.37;1.27;;;26.00;53.90;;;;;;943758;149;27274;-77
2023/08/31 10:49:13;;;;;;;2.35;1.35;;;25.90;54.00;;;;;;943644;149;27335;-76
2023/08/31 10:51:38;;;;;;;1.65;1.27;;;25.70;54.10;;;;;;943169;148;27348;-77
2023/08/31 10:54:26;;;;;;;1.98;1.12;;;25.70;54.10;;;;;;927564;151;27444;-78
2023/08/31 10:56:55;;;;;;;1.92;1.30;;;25.60;54.30;;;;;;928093;151;27355;-77
2023/08/31 10:59:22;;;;;;;1.98;1.37;;;25.40;54.40;;;;;;943067;149;27739;-75
2023/08/31 11:01:57;;;;;;;1.55;1.37;;;25.40;54.40;;;;;;942184;149;27423;-77
2023/08/31 11:04:24;;;;;;;1.22;1.10;;;25.30;54.50;;;;;;941259;149;27359;-76
2023/08/31 11:06:50;;;;;;;2.80;1.50;;;25.20;54.60;;;;;;926805;151;27431;-77
2023/08/31 11:09:20;;;;;;;3.92;1.60;;;25.10;54.80;;;;;;930754;151;27403;-75
2023/08/31 11:11:47;;;;;;;2.85;1.32;;;25.10;54.70;;;;;;943843;149;27362;-76
2023/08/31 11:14:13;;;;;;;2.30;1.12;;;25.00;54.60;;;;;;945150;149;27338;-77
2023/08/31 11:16:39;;;;;;;1.82;1.30;;;24.90;54.50;;;;;;943400;149;27347;-77
2023/08/31 11:19:06;;;;;;;1.37;1.22;;;24.90;54.60;;;;;;944507;149;27326;-75
2023/08/31 11:21:33;;;;;;;1.47;1.30;;;24.80;54.70;;;;;;942964;149;27439;-77
2023/08/31 11:23:59;;;;;;;1.98;1.05;;;24.70;54.90;;;;;;942586;149;28329;-77
2023/08/31 11:26:29;;;;;;;0.82;0.82;;;24.70;55.20;;;;;;942393;148;27373;-74
2023/08/31 11:28:55;;;;;;;2.60;1.22;;;24.80;55.60;;;;;;930256;153;27348;-75
2023/08/31 11:31:25;;;;;;;1.67;1.25;;;24.90;56.00;;;;;;930849;150;27744;-77
2023/08/31 11:33:51;;;;;;;1.85;1.30;;;25.00;56.00;;;;;;932037;150;27364;-74
2023/08/31 11:36:18;;;;;;;1.67;1.10;;;25.20;55.70;;;;;;931295;150;28776;-74
2023/08/31 11:38:45;;;;;;;1.50;1.40;;;25.40;55.40;;;;;;930653;150;27365;-74
2023/08/31 11:41:11;;;;;;;1.50;1.22;;;25.50;55.00;;;;;;929778;150;27364;-76
2023/08/31 11:43:38;;;;;;;1.80;1.10;;;25.70;54.80;;;;;;930747;150;27806;-73
2023/08/31 11:46:05;;;;;;;2.83;1.20;;;25.80;54.50;;;;;;930421;150;27399;-73
2023/08/31 11:48:31;;;;;;;2.65;1.47;;;25.90;54.50;;;;;;932231;150;27313;-75
2023/08/31 11:50:57;;;;;;;2.65;1.50;;;26.00;54.20;;;;;;930921;150;27432;-73
2023/08/31 11:53:24;;;;;;;2.12;1.92;;;26.10;54.10;;;;;;915367;152;27402;-73
2023/08/31 11:55:51;;;;;;;1.15;1.10;;;26.10;53.80;;;;;;931329;150;27417;-72
2023/08/31 11:58:17;;;;;;;1.82;1.10;;;26.10;53.60;;;;;;931090;150;27320;-74
2023/08/31 12:00:46;;;;;;;1.90;1.20;;;26.20;53.40;;;;;;931699;150;27294;-75
2023/08/31 12:03:10;;;;;;;1.57;1.00;;;26.20;53.00;;;;;;931704;150;27444;-73
2023/08/31 12:05:46;;;;;;;1.10;1.00;;;26.20;52.80;;;;;;933070;150;27363;-73
2023/08/31 12:08:13;;;;;;;2.08;1.27;;;26.20;52.60;;;;;;932624;150;27429;-73
2023/08/31 12:10:42;;;;;;;1.30;1.20;;;26.20;52.70;;;;;;930649;150;27389;-74
2023/08/31 12:13:09;;;;;;;1.17;1.07;;;26.20;52.80;;;;;;931265;150;27336;-74
2023/08/31 12:15:36;;;;;;;2.35;1.25;;;26.20;52.60;;;;;;931417;150;27848;-76
2023/08/31 12:18:08;;;;;;;1.87;1.30;;;26.30;52.70;;;;;;930973;150;27277;-73
2023/08/31 12:20:40;;;;;;;2.25;1.20;;;26.30;52.60;;;;;;931366;148;27332;-74
2023/08/31 12:23:03;;;;;;;1.72;1.02;;;26.30;52.40;;;;;;930982;150;27452;-74
2023/08/31 12:25:28;;;;;;;1.25;1.07;;;26.40;52.30;;;;;;929550;150;27375;-73
2023/08/31 12:27:54;;;;;;;1.42;1.20;;;26.40;52.30;;;;;;936430;149;27418;-73
2023/08/31 12:30:21;;;;;;;1.57;1.20;;;26.40;52.30;;;;;;942343;149;27747;-74
2023/08/31 12:32:48;;;;;;;2.05;1.22;;;26.40;52.20;;;;;;942744;149;27442;-73
2023/08/31 12:35:14;;;;;;;1.47;1.37;;;26.40;52.30;;;;;;943313;148;27336;-76
2023/08/31 12:37:41;;;;;;;1.32;1.25;;;26.50;52.50;;;;;;943362;149;27381;-73
2023/08/31 12:40:09;;;;;;;1.45;1.35;;;26.50;52.60;;;;;;944994;149;27476;-73
2023/08/31 12:42:34;;;;;;;1.72;1.30;;;26.50;52.50;;;;;;942970;149;27738;-75
2023/08/31 12:45:01;;;;;;;1.20;1.10;;;26.60;52.40;;;;;;944528;149;27470;-75
2023/08/31 12:47:27;;;;;;;1.40;1.27;;;26.60;52.20;;;;;;944668;149;27362;-75